Airfield :
LOGIN :

Register | Disclaimer

   EN    FR    IT 

 










Legend :    VFR   Marginal VFR   IFR   Intensive IFR   Very Intensive IFR
Visi :
Ceiling :
>= 8 km
>= 3000ft
5 to 8 km
1000 to 3000 ft
1500m to 5 km
500 to 1000 ft
800 to 1500m
200 to 500 ft
< 800m
< 200 ft
Symbols :   Thunderstorms  Fog  Heavy snow  Heavy precipitations  Wind > 20 kt
SIGMETs :     Misc.  Thunderstorms  Icing  Turbulence  Mountain Waves  Volcanic Ashes






- Airport Elevation : 1521 ft
- IATA code : NCY


LFLP - Annecy

CURRENT METAR :
  • 230830Z AUTO VRB02KT 9999 BKN017 OVC023 14/12 Q1018 TEMPO 4000 SHRA BKN045TCU

EXPIRED METARs :
  • 230800Z AUTO VRB02KT 9999 BKN013 BKN018 BKN060 14/11 Q1018
  • 230730Z AUTO VRB01KT 9999 FEW012 OVC076 13/11 Q1018 NOSIG
  • 230700Z AUTO VRB02KT 9999 3400 SCT043 OVC078 12/11 Q1017 NOSIG
  • 230630Z AUTO 07003KT 9999 4700 FEW015 BKN045 OVC078 12/11 Q1017 NOSIG
  • 230600Z AUTO VRB02KT 9999 FEW027 BKN041 BKN047 12/11 Q1017 NOSIG
  • 230530Z AUTO VRB02KT 9999 BKN037 OVC088 11/11 Q1017 NOSIG
  • 230500Z AUTO 05003KT 9999 FEW072 BKN094 11/10 Q1017 NOSIG
  • 230430Z AUTO 07003KT 9999 FEW054 OVC086 11/10 Q1017 NOSIG
  • 230400Z AUTO 05003KT 9999 -RA OVC082 11/10 Q1017 NOSIG

TAF TAF LFLP
Valid from the 23 at 09:00 until the 24 at 09:00 UTC


230800Z 2309/2409 VRB03KT 9999 BKN013
BECMG 2309/2310 BKN030
TEMPO 2310/2318 FEW050TCU
PROB40
TEMPO 2310/2318 4000 SHRA BKN045TCU
PROB30
TEMPO 2311/2318 VRB15G30KT 1500 +TSRA BKN045CB



MET'MAP, your aeronautical weather chart ! - Copyright ORBIFLY December 2007 - Disclaimer

ORBIFLY MET'MAP TEAM :

Programming & Development : Alexandra Zaïnal
Original concept : Baudouin d'Aumeries
Technical & hardware support : Manuel Goepfert
Assistance : Marc-Olivier Méhu




SOURCES & CREDITS :

   NOAA